sensor_id;sensor_type;location;lat;lon;timestamp;temperature;humidity
17887;DHT22;9069;52.044;7.472;2023-01-24T00:00:50;5.50;99.90
17887;DHT22;9069;52.044;7.472;2023-01-24T00:03:17;5.50;99.90
17887;DHT22;9069;52.044;7.472;2023-01-24T00:05:46;5.50;99.90
17887;DHT22;9069;52.044;7.472;2023-01-24T00:08:15;5.50;99.90
17887;DHT22;9069;52.044;7.472;2023-01-24T00:10:42;5.50;99.90
17887;DHT22;9069;52.044;7.472;2023-01-24T00:13:12;5.50;99.90
17887;DHT22;9069;52.044;7.472;2023-01-24T00:15:40;5.50;99.90
17887;DHT22;9069;52.044;7.472;2023-01-24T00:18:07;5.50;99.90
17887;DHT22;9069;52.044;7.472;2023-01-24T00:20:33;5.50;99.90
17887;DHT22;9069;52.044;7.472;2023-01-24T00:23:00;5.50;99.90
17887;DHT22;9069;52.044;7.472;2023-01-24T00:25:27;5.50;99.90
17887;DHT22;9069;52.044;7.472;2023-01-24T00:27:54;5.50;99.90
17887;DHT22;9069;52.044;7.472;2023-01-24T00:30:20;5.50;99.90
17887;DHT22;9069;52.044;7.472;2023-01-24T00:32:47;5.50;99.90
17887;DHT22;9069;52.044;7.472;2023-01-24T00:35:14;5.50;99.90
17887;DHT22;9069;52.044;7.472;2023-01-24T00:37:41;5.50;99.90
17887;DHT22;9069;52.044;7.472;2023-01-24T00:40:09;5.50;99.90
17887;DHT22;9069;52.044;7.472;2023-01-24T00:42:35;5.50;99.90
17887;DHT22;9069;52.044;7.472;2023-01-24T00:45:04;5.50;99.90
17887;DHT22;9069;52.044;7.472;2023-01-24T00:47:31;5.50;99.90
17887;DHT22;9069;52.044;7.472;2023-01-24T00:49:57;5.50;99.90
17887;DHT22;9069;52.044;7.472;2023-01-24T00:52:24;5.50;99.90
17887;DHT22;9069;52.044;7.472;2023-01-24T00:54:51;5.50;99.90
17887;DHT22;9069;52.044;7.472;2023-01-24T00:57:18;5.50;99.90
17887;DHT22;9069;52.044;7.472;2023-01-24T00:59:45;5.50;99.90
17887;DHT22;9069;52.044;7.472;2023-01-24T01:02:11;5.50;99.90
17887;DHT22;9069;52.044;7.472;2023-01-24T01:04:38;5.50;99.90
17887;DHT22;9069;52.044;7.472;2023-01-24T01:07:05;5.50;99.90
17887;DHT22;9069;52.044;7.472;2023-01-24T01:09:31;5.50;99.90
17887;DHT22;9069;52.044;7.472;2023-01-24T01:11:58;5.50;99.90
17887;DHT22;9069;52.044;7.472;2023-01-24T01:14:25;5.50;99.90
17887;DHT22;9069;52.044;7.472;2023-01-24T01:16:52;5.50;99.90
17887;DHT22;9069;52.044;7.472;2023-01-24T01:19:18;5.50;99.90
17887;DHT22;9069;52.044;7.472;2023-01-24T01:21:45;5.50;99.90
17887;DHT22;9069;52.044;7.472;2023-01-24T01:24:12;5.50;99.90
17887;DHT22;9069;52.044;7.472;2023-01-24T01:26:39;5.50;99.90
17887;DHT22;9069;52.044;7.472;2023-01-24T01:29:05;5.50;99.90
17887;DHT22;9069;52.044;7.472;2023-01-24T01:31:32;5.50;99.90
17887;DHT22;9069;52.044;7.472;2023-01-24T01:34:00;5.50;99.90
17887;DHT22;9069;52.044;7.472;2023-01-24T01:36:27;5.50;99.90
17887;DHT22;9069;52.044;7.472;2023-01-24T01:38:53;5.50;99.90
17887;DHT22;9069;52.044;7.472;2023-01-24T01:41:20;5.50;99.90
17887;DHT22;9069;52.044;7.472;2023-01-24T01:43:48;5.50;99.90
17887;DHT22;9069;52.044;7.472;2023-01-24T01:46:43;5.50;99.90
17887;DHT22;9069;52.044;7.472;2023-01-24T01:49:19;5.40;99.90
17887;DHT22;9069;52.044;7.472;2023-01-24T01:51:51;5.40;99.90
17887;DHT22;9069;52.044;7.472;2023-01-24T01:54:27;5.40;99.90
17887;DHT22;9069;52.044;7.472;2023-01-24T01:57:02;5.40;99.90
17887;DHT22;9069;52.044;7.472;2023-01-24T01:59:36;5.40;99.90
17887;DHT22;9069;52.044;7.472;2023-01-24T02:02:06;5.40;99.90
17887;DHT22;9069;52.044;7.472;2023-01-24T02:04:37;5.40;99.90
17887;DHT22;9069;52.044;7.472;2023-01-24T02:07:24;5.40;99.90
17887;DHT22;9069;52.044;7.472;2023-01-24T02:09:53;5.30;99.90
17887;DHT22;9069;52.044;7.472;2023-01-24T02:12:23;5.30;99.90
17887;DHT22;9069;52.044;7.472;2023-01-24T02:14:57;5.30;99.90
17887;DHT22;9069;52.044;7.472;2023-01-24T02:17:44;5.30;99.90
17887;DHT22;9069;52.044;7.472;2023-01-24T02:28:37;5.30;99.90
17887;DHT22;9069;52.044;7.472;2023-01-24T02:31:04;5.30;99.90
17887;DHT22;9069;52.044;7.472;2023-01-24T02:33:32;5.30;99.90
17887;DHT22;9069;52.044;7.472;2023-01-24T02:36:34;5.30;99.90
17887;DHT22;9069;52.044;7.472;2023-01-24T02:39:08;5.30;99.90
17887;DHT22;9069;52.044;7.472;2023-01-24T02:41:59;5.30;99.90
17887;DHT22;9069;52.044;7.472;2023-01-24T02:44:34;5.30;99.90
17887;DHT22;9069;52.044;7.472;2023-01-24T02:47:03;5.30;99.90
17887;DHT22;9069;52.044;7.472;2023-01-24T02:49:30;5.30;99.90
17887;DHT22;9069;52.044;7.472;2023-01-24T02:51:57;5.20;99.90
17887;DHT22;9069;52.044;7.472;2023-01-24T02:54:42;5.30;99.90
17887;DHT22;9069;52.044;7.472;2023-01-24T02:57:09;5.20;99.90
17887;DHT22;9069;52.044;7.472;2023-01-24T02:59:54;5.30;99.90
17887;DHT22;9069;52.044;7.472;2023-01-24T03:02:21;5.30;99.90
17887;DHT22;9069;52.044;7.472;2023-01-24T03:04:48;5.20;99.90
17887;DHT22;9069;52.044;7.472;2023-01-24T03:07:15;5.30;99.90
17887;DHT22;9069;52.044;7.472;2023-01-24T03:09:48;5.30;99.90
17887;DHT22;9069;52.044;7.472;2023-01-24T03:12:20;5.30;99.90
17887;DHT22;9069;52.044;7.472;2023-01-24T03:15:05;5.30;99.90
17887;DHT22;9069;52.044;7.472;2023-01-24T03:17:51;5.30;99.90
17887;DHT22;9069;52.044;7.472;2023-01-24T03:20:36;5.30;99.90
17887;DHT22;9069;52.044;7.472;2023-01-24T03:23:21;5.30;99.90
17887;DHT22;9069;52.044;7.472;2023-01-24T03:26:07;5.30;99.90
17887;DHT22;9069;52.044;7.472;2023-01-24T03:28:52;5.30;99.90
17887;DHT22;9069;52.044;7.472;2023-01-24T03:31:37;5.30;99.90
17887;DHT22;9069;52.044;7.472;2023-01-24T03:34:25;5.20;99.90
17887;DHT22;9069;52.044;7.472;2023-01-24T03:37:00;5.30;99.90
17887;DHT22;9069;52.044;7.472;2023-01-24T03:39:28;5.20;99.90
17887;DHT22;9069;52.044;7.472;2023-01-24T03:42:13;5.20;99.90
17887;DHT22;9069;52.044;7.472;2023-01-24T03:44:40;5.20;99.90
17887;DHT22;9069;52.044;7.472;2023-01-24T03:47:08;5.20;99.90
17887;DHT22;9069;52.044;7.472;2023-01-24T03:49:36;5.30;99.90
17887;DHT22;9069;52.044;7.472;2023-01-24T03:52:22;5.30;99.90
17887;DHT22;9069;52.044;7.472;2023-01-24T03:54:53;5.30;99.90
17887;DHT22;9069;52.044;7.472;2023-01-24T03:57:21;5.30;99.90
17887;DHT22;9069;52.044;7.472;2023-01-24T03:59:50;5.30;99.90
17887;DHT22;9069;52.044;7.472;2023-01-24T04:02:17;5.30;99.90
17887;DHT22;9069;52.044;7.472;2023-01-24T04:04:44;5.30;99.90
17887;DHT22;9069;52.044;7.472;2023-01-24T04:07:30;5.30;99.90
17887;DHT22;9069;52.044;7.472;2023-01-24T04:10:01;5.30;99.90
17887;DHT22;9069;52.044;7.472;2023-01-24T04:12:34;5.30;99.90
17887;DHT22;9069;52.044;7.472;2023-01-24T04:15:03;5.30;99.90
17887;DHT22;9069;52.044;7.472;2023-01-24T04:17:30;5.30;99.90
17887;DHT22;9069;52.044;7.472;2023-01-24T04:19:57;5.30;99.90
17887;DHT22;9069;52.044;7.472;2023-01-24T04:22:24;5.30;99.90
17887;DHT22;9069;52.044;7.472;2023-01-24T04:24:54;5.30;99.90
17887;DHT22;9069;52.044;7.472;2023-01-24T04:27:23;5.30;99.90
17887;DHT22;9069;52.044;7.472;2023-01-24T04:30:06;5.30;99.90
17887;DHT22;9069;52.044;7.472;2023-01-24T04:32:36;5.30;99.90
17887;DHT22;9069;52.044;7.472;2023-01-24T04:35:18;5.30;99.90
17887;DHT22;9069;52.044;7.472;2023-01-24T04:37:50;5.30;99.90
17887;DHT22;9069;52.044;7.472;2023-01-24T04:40:39;5.20;99.90
17887;DHT22;9069;52.044;7.472;2023-01-24T04:43:07;5.20;99.70
17887;DHT22;9069;52.044;7.472;2023-01-24T04:45:36;5.30;99.80
17887;DHT22;9069;52.044;7.472;2023-01-24T04:48:06;5.20;99.70
17887;DHT22;9069;52.044;7.472;2023-01-24T04:50:32;5.20;99.70
17887;DHT22;9069;52.044;7.472;2023-01-24T04:52:59;5.20;99.70
17887;DHT22;9069;52.044;7.472;2023-01-24T04:55:27;5.20;99.70
17887;DHT22;9069;52.044;7.472;2023-01-24T04:57:53;5.20;99.80
17887;DHT22;9069;52.044;7.472;2023-01-24T05:00:21;5.20;99.80
17887;DHT22;9069;52.044;7.472;2023-01-24T05:02:50;5.20;99.70
17887;DHT22;9069;52.044;7.472;2023-01-24T05:05:19;5.20;99.70
17887;DHT22;9069;52.044;7.472;2023-01-24T05:07:46;5.20;99.80
17887;DHT22;9069;52.044;7.472;2023-01-24T05:10:16;5.20;99.80
17887;DHT22;9069;52.044;7.472;2023-01-24T05:12:45;5.20;99.80
17887;DHT22;9069;52.044;7.472;2023-01-24T05:15:17;5.20;99.90
17887;DHT22;9069;52.044;7.472;2023-01-24T05:17:49;5.20;99.80
17887;DHT22;9069;52.044;7.472;2023-01-24T05:20:19;5.20;99.80
17887;DHT22;9069;52.044;7.472;2023-01-24T05:22:45;5.20;99.70
17887;DHT22;9069;52.044;7.472;2023-01-24T05:25:15;5.20;99.60
17887;DHT22;9069;52.044;7.472;2023-01-24T05:27:43;5.20;99.50
17887;DHT22;9069;52.044;7.472;2023-01-24T05:30:11;5.20;99.40
17887;DHT22;9069;52.044;7.472;2023-01-24T05:32:39;5.20;99.40
17887;DHT22;9069;52.044;7.472;2023-01-24T05:35:06;5.10;99.40
17887;DHT22;9069;52.044;7.472;2023-01-24T05:37:36;5.10;99.40
17887;DHT22;9069;52.044;7.472;2023-01-24T05:40:04;5.10;99.30
17887;DHT22;9069;52.044;7.472;2023-01-24T05:42:31;5.10;99.30
17887;DHT22;9069;52.044;7.472;2023-01-24T05:44:58;5.10;99.30
17887;DHT22;9069;52.044;7.472;2023-01-24T05:47:25;5.10;99.40
17887;DHT22;9069;52.044;7.472;2023-01-24T05:49:52;5.10;99.50
17887;DHT22;9069;52.044;7.472;2023-01-24T05:52:19;5.10;99.50
17887;DHT22;9069;52.044;7.472;2023-01-24T05:54:51;5.10;99.50
17887;DHT22;9069;52.044;7.472;2023-01-24T05:57:24;5.10;99.40
17887;DHT22;9069;52.044;7.472;2023-01-24T06:00:20;5.10;99.40
17887;DHT22;9069;52.044;7.472;2023-01-24T06:03:06;5.10;99.50
17887;DHT22;9069;52.044;7.472;2023-01-24T06:05:33;5.00;99.40
17887;DHT22;9069;52.044;7.472;2023-01-24T06:08:00;5.00;99.50
17887;DHT22;9069;52.044;7.472;2023-01-24T06:10:28;5.00;99.50
17887;DHT22;9069;52.044;7.472;2023-01-24T06:13:02;5.00;99.50
17887;DHT22;9069;52.044;7.472;2023-01-24T06:15:29;5.00;99.40
17887;DHT22;9069;52.044;7.472;2023-01-24T06:17:56;5.00;99.40
17887;DHT22;9069;52.044;7.472;2023-01-24T06:20:23;5.00;99.50
17887;DHT22;9069;52.044;7.472;2023-01-24T06:23:03;5.00;99.50
17887;DHT22;9069;52.044;7.472;2023-01-24T06:25:33;5.00;99.40
17887;DHT22;9069;52.044;7.472;2023-01-24T06:28:00;5.00;99.50
17887;DHT22;9069;52.044;7.472;2023-01-24T06:30:27;5.00;99.60
17887;DHT22;9069;52.044;7.472;2023-01-24T06:33:16;5.00;99.50
17887;DHT22;9069;52.044;7.472;2023-01-24T06:36:10;5.00;99.40
17887;DHT22;9069;52.044;7.472;2023-01-24T06:38:39;5.00;99.40
17887;DHT22;9069;52.044;7.472;2023-01-24T06:41:14;5.00;99.50
17887;DHT22;9069;52.044;7.472;2023-01-24T06:43:41;5.00;99.40
17887;DHT22;9069;52.044;7.472;2023-01-24T06:46:09;5.00;99.50
17887;DHT22;9069;52.044;7.472;2023-01-24T06:48:36;5.00;99.50
17887;DHT22;9069;52.044;7.472;2023-01-24T06:51:03;5.00;99.50
17887;DHT22;9069;52.044;7.472;2023-01-24T06:53:32;5.00;99.50
17887;DHT22;9069;52.044;7.472;2023-01-24T06:56:00;5.00;99.50
17887;DHT22;9069;52.044;7.472;2023-01-24T06:58:27;5.00;99.50
17887;DHT22;9069;52.044;7.472;2023-01-24T07:00:54;5.00;99.60
17887;DHT22;9069;52.044;7.472;2023-01-24T07:03:21;5.00;99.90
17887;DHT22;9069;52.044;7.472;2023-01-24T07:05:48;5.00;99.60
17887;DHT22;9069;52.044;7.472;2023-01-24T07:08:15;5.00;99.60
17887;DHT22;9069;52.044;7.472;2023-01-24T07:10:47;5.00;99.60
17887;DHT22;9069;52.044;7.472;2023-01-24T07:13:14;5.00;99.50
17887;DHT22;9069;52.044;7.472;2023-01-24T07:15:40;5.00;99.50
17887;DHT22;9069;52.044;7.472;2023-01-24T07:18:08;5.00;99.90
17887;DHT22;9069;52.044;7.472;2023-01-24T07:20:35;5.00;99.50
17887;DHT22;9069;52.044;7.472;2023-01-24T07:23:02;5.00;99.40
17887;DHT22;9069;52.044;7.472;2023-01-24T07:25:29;5.00;99.40
17887;DHT22;9069;52.044;7.472;2023-01-24T07:27:57;5.00;99.40
17887;DHT22;9069;52.044;7.472;2023-01-24T07:30:24;5.00;99.30
17887;DHT22;9069;52.044;7.472;2023-01-24T07:32:51;5.00;99.30
17887;DHT22;9069;52.044;7.472;2023-01-24T07:35:17;4.90;99.30
17887;DHT22;9069;52.044;7.472;2023-01-24T07:37:44;4.90;99.30
17887;DHT22;9069;52.044;7.472;2023-01-24T07:40:11;4.90;99.30
17887;DHT22;9069;52.044;7.472;2023-01-24T07:42:37;4.90;99.30
17887;DHT22;9069;52.044;7.472;2023-01-24T07:45:05;4.90;99.40
17887;DHT22;9069;52.044;7.472;2023-01-24T07:47:32;4.90;99.40
17887;DHT22;9069;52.044;7.472;2023-01-24T07:49:58;4.90;99.50
17887;DHT22;9069;52.044;7.472;2023-01-24T07:52:25;4.90;99.50
17887;DHT22;9069;52.044;7.472;2023-01-24T07:54:52;4.90;99.50
17887;DHT22;9069;52.044;7.472;2023-01-24T07:57:19;4.90;99.50
17887;DHT22;9069;52.044;7.472;2023-01-24T07:59:45;4.90;99.40
17887;DHT22;9069;52.044;7.472;2023-01-24T08:02:12;4.90;99.40
17887;DHT22;9069;52.044;7.472;2023-01-24T08:04:39;4.90;99.40
17887;DHT22;9069;52.044;7.472;2023-01-24T08:07:06;4.90;99.40
17887;DHT22;9069;52.044;7.472;2023-01-24T08:09:46;4.90;99.40
17887;DHT22;9069;52.044;7.472;2023-01-24T08:12:13;4.90;99.40
17887;DHT22;9069;52.044;7.472;2023-01-24T08:14:40;4.90;99.50
17887;DHT22;9069;52.044;7.472;2023-01-24T08:17:07;4.90;99.50
17887;DHT22;9069;52.044;7.472;2023-01-24T08:19:34;4.90;99.60
17887;DHT22;9069;52.044;7.472;2023-01-24T08:22:21;4.90;99.40
17887;DHT22;9069;52.044;7.472;2023-01-24T08:24:47;4.90;99.40
17887;DHT22;9069;52.044;7.472;2023-01-24T08:27:14;4.90;99.50
17887;DHT22;9069;52.044;7.472;2023-01-24T08:29:41;4.90;99.50
17887;DHT22;9069;52.044;7.472;2023-01-24T08:32:07;5.00;99.60
17887;DHT22;9069;52.044;7.472;2023-01-24T08:34:34;5.00;99.60
17887;DHT22;9069;52.044;7.472;2023-01-24T08:37:01;5.00;99.50
17887;DHT22;9069;52.044;7.472;2023-01-24T08:39:28;5.00;99.50
17887;DHT22;9069;52.044;7.472;2023-01-24T08:41:55;5.00;99.50
17887;DHT22;9069;52.044;7.472;2023-01-24T08:44:21;5.00;99.40
17887;DHT22;9069;52.044;7.472;2023-01-24T08:46:48;5.00;99.40
17887;DHT22;9069;52.044;7.472;2023-01-24T08:49:15;5.00;99.30
17887;DHT22;9069;52.044;7.472;2023-01-24T08:51:41;5.00;99.30
17887;DHT22;9069;52.044;7.472;2023-01-24T08:54:08;5.00;99.30
17887;DHT22;9069;52.044;7.472;2023-01-24T08:56:35;5.00;99.30
17887;DHT22;9069;52.044;7.472;2023-01-24T08:59:02;5.00;99.30
17887;DHT22;9069;52.044;7.472;2023-01-24T09:01:29;4.90;99.40
17887;DHT22;9069;52.044;7.472;2023-01-24T09:03:55;4.90;99.30
17887;DHT22;9069;52.044;7.472;2023-01-24T09:06:23;4.90;99.40
17887;DHT22;9069;52.044;7.472;2023-01-24T09:08:54;4.90;99.40
17887;DHT22;9069;52.044;7.472;2023-01-24T09:11:21;4.90;99.30
17887;DHT22;9069;52.044;7.472;2023-01-24T09:13:48;4.90;99.40
17887;DHT22;9069;52.044;7.472;2023-01-24T09:16:15;4.90;99.40
17887;DHT22;9069;52.044;7.472;2023-01-24T09:18:42;5.00;99.40
17887;DHT22;9069;52.044;7.472;2023-01-24T09:21:09;4.90;99.50
17887;DHT22;9069;52.044;7.472;2023-01-24T09:23:36;4.90;99.50
17887;DHT22;9069;52.044;7.472;2023-01-24T09:26:03;4.90;99.50
17887;DHT22;9069;52.044;7.472;2023-01-24T09:28:30;5.00;99.60
17887;DHT22;9069;52.044;7.472;2023-01-24T09:30:57;5.00;99.70
17887;DHT22;9069;52.044;7.472;2023-01-24T09:33:24;5.00;99.70
17887;DHT22;9069;52.044;7.472;2023-01-24T09:35:59;5.00;99.60
17887;DHT22;9069;52.044;7.472;2023-01-24T09:38:28;5.00;99.60
17887;DHT22;9069;52.044;7.472;2023-01-24T09:43:43;5.00;99.90
17887;DHT22;9069;52.044;7.472;2023-01-24T09:48:48;5.10;99.40
17887;DHT22;9069;52.044;7.472;2023-01-24T09:51:21;5.10;99.50
17887;DHT22;9069;52.044;7.472;2023-01-24T09:53:54;5.10;99.40
17887;DHT22;9069;52.044;7.472;2023-01-24T09:56:41;5.10;99.40
17887;DHT22;9069;52.044;7.472;2023-01-24T09:59:22;5.10;99.20
17887;DHT22;9069;52.044;7.472;2023-01-24T10:01:51;5.10;99.30
17887;DHT22;9069;52.044;7.472;2023-01-24T10:04:30;5.10;99.40
17887;DHT22;9069;52.044;7.472;2023-01-24T10:13:12;5.10;99.30
17887;DHT22;9069;52.044;7.472;2023-01-24T10:21:00;5.10;99.20
17887;DHT22;9069;52.044;7.472;2023-01-24T10:23:43;5.10;99.30
17887;DHT22;9069;52.044;7.472;2023-01-24T10:26:35;5.10;99.10
17887;DHT22;9069;52.044;7.472;2023-01-24T10:29:29;5.10;99.00
17887;DHT22;9069;52.044;7.472;2023-01-24T10:32:05;5.10;99.10
17887;DHT22;9069;52.044;7.472;2023-01-24T10:34:54;5.10;99.20
17887;DHT22;9069;52.044;7.472;2023-01-24T10:37:24;5.10;99.20
17887;DHT22;9069;52.044;7.472;2023-01-24T10:39:52;5.10;99.40
17887;DHT22;9069;52.044;7.472;2023-01-24T10:42:23;5.10;99.40
17887;DHT22;9069;52.044;7.472;2023-01-24T10:44:51;5.10;99.30
17887;DHT22;9069;52.044;7.472;2023-01-24T10:47:45;5.10;99.30
17887;DHT22;9069;52.044;7.472;2023-01-24T10:50:16;5.20;99.20
17887;DHT22;9069;52.044;7.472;2023-01-24T10:52:44;5.10;99.30
17887;DHT22;9069;52.044;7.472;2023-01-24T10:55:32;5.10;99.30
17887;DHT22;9069;52.044;7.472;2023-01-24T10:58:20;5.10;99.20
17887;DHT22;9069;52.044;7.472;2023-01-24T11:00:56;5.10;99.30
17887;DHT22;9069;52.044;7.472;2023-01-24T11:03:26;5.10;99.30
17887;DHT22;9069;52.044;7.472;2023-01-24T11:05:55;5.20;99.40
17887;DHT22;9069;52.044;7.472;2023-01-24T11:08:34;5.20;99.40
17887;DHT22;9069;52.044;7.472;2023-01-24T11:11:01;5.20;99.40
17887;DHT22;9069;52.044;7.472;2023-01-24T11:13:39;5.20;99.30
17887;DHT22;9069;52.044;7.472;2023-01-24T11:21:19;5.20;99.10
17887;DHT22;9069;52.044;7.472;2023-01-24T11:26:30;5.20;99.10
17887;DHT22;9069;52.044;7.472;2023-01-24T11:29:00;5.20;99.30
17887;DHT22;9069;52.044;7.472;2023-01-24T11:31:37;5.20;99.40
17887;DHT22;9069;52.044;7.472;2023-01-24T11:39:53;5.30;99.40
17887;DHT22;9069;52.044;7.472;2023-01-24T11:42:46;5.30;99.30
17887;DHT22;9069;52.044;7.472;2023-01-24T11:50:42;5.30;99.30
17887;DHT22;9069;52.044;7.472;2023-01-24T11:53:27;5.40;99.30
17887;DHT22;9069;52.044;7.472;2023-01-24T12:01:39;5.40;99.10
17887;DHT22;9069;52.044;7.472;2023-01-24T12:07:07;5.40;99.10
17887;DHT22;9069;52.044;7.472;2023-01-24T12:09:45;5.50;99.30
17887;DHT22;9069;52.044;7.472;2023-01-24T12:12:23;5.50;99.30
17887;DHT22;9069;52.044;7.472;2023-01-24T12:23:34;5.50;99.20
17887;DHT22;9069;52.044;7.472;2023-01-24T12:26:34;5.60;99.10
17887;DHT22;9069;52.044;7.472;2023-01-24T12:31:35;5.60;99.20
17887;DHT22;9069;52.044;7.472;2023-01-24T12:45:16;5.70;98.70
17887;DHT22;9069;52.044;7.472;2023-01-24T12:48:10;5.70;98.60
17887;DHT22;9069;52.044;7.472;2023-01-24T12:50:49;5.70;98.70
17887;DHT22;9069;52.044;7.472;2023-01-24T12:53:29;5.70;98.60
17887;DHT22;9069;52.044;7.472;2023-01-24T12:56:19;5.70;98.50
17887;DHT22;9069;52.044;7.472;2023-01-24T12:58:49;5.70;98.30
17887;DHT22;9069;52.044;7.472;2023-01-24T13:12:04;5.70;98.70
17887;DHT22;9069;52.044;7.472;2023-01-24T13:14:38;5.70;98.60
17887;DHT22;9069;52.044;7.472;2023-01-24T13:17:29;5.70;98.50
17887;DHT22;9069;52.044;7.472;2023-01-24T13:20:24;5.70;98.40
17887;DHT22;9069;52.044;7.472;2023-01-24T13:23:05;5.70;98.50
17887;DHT22;9069;52.044;7.472;2023-01-24T13:28:47;5.70;98.50
17887;DHT22;9069;52.044;7.472;2023-01-24T13:31:45;5.70;98.40
17887;DHT22;9069;52.044;7.472;2023-01-24T13:34:15;5.70;98.40
17887;DHT22;9069;52.044;7.472;2023-01-24T13:36:49;5.70;98.50
17887;DHT22;9069;52.044;7.472;2023-01-24T13:39:33;5.70;98.40
17887;DHT22;9069;52.044;7.472;2023-01-24T13:44:32;5.70;98.20
17887;DHT22;9069;52.044;7.472;2023-01-24T13:47:20;5.70;98.20
17887;DHT22;9069;52.044;7.472;2023-01-24T13:54:59;5.60;98.00
17887;DHT22;9069;52.044;7.472;2023-01-24T13:57:28;5.60;98.20
17887;DHT22;9069;52.044;7.472;2023-01-24T14:10:36;5.60;98.50
17887;DHT22;9069;52.044;7.472;2023-01-24T14:13:05;5.60;98.40
17887;DHT22;9069;52.044;7.472;2023-01-24T14:15:37;5.60;98.50
17887;DHT22;9069;52.044;7.472;2023-01-24T14:18:45;5.60;98.40
17887;DHT22;9069;52.044;7.472;2023-01-24T14:21:16;5.60;98.50
17887;DHT22;9069;52.044;7.472;2023-01-24T14:23:50;5.60;98.20
17887;DHT22;9069;52.044;7.472;2023-01-24T14:26:22;5.60;98.10
17887;DHT22;9069;52.044;7.472;2023-01-24T14:28:55;5.50;98.20
17887;DHT22;9069;52.044;7.472;2023-01-24T14:31:31;5.50;98.00
17887;DHT22;9069;52.044;7.472;2023-01-24T14:36:56;5.50;97.90
17887;DHT22;9069;52.044;7.472;2023-01-24T14:39:26;5.50;98.20
17887;DHT22;9069;52.044;7.472;2023-01-24T14:41:56;5.50;98.30
17887;DHT22;9069;52.044;7.472;2023-01-24T14:44:26;5.40;98.30
17887;DHT22;9069;52.044;7.472;2023-01-24T14:46:59;5.40;98.30
17887;DHT22;9069;52.044;7.472;2023-01-24T14:49:30;5.40;98.30
17887;DHT22;9069;52.044;7.472;2023-01-24T14:51:56;5.40;98.10
17887;DHT22;9069;52.044;7.472;2023-01-24T14:54:37;5.40;98.10
17887;DHT22;9069;52.044;7.472;2023-01-24T14:57:26;5.40;98.20
17887;DHT22;9069;52.044;7.472;2023-01-24T15:02:26;5.30;98.10
17887;DHT22;9069;52.044;7.472;2023-01-24T15:04:53;5.40;98.30
17887;DHT22;9069;52.044;7.472;2023-01-24T15:07:19;5.40;98.30
17887;DHT22;9069;52.044;7.472;2023-01-24T15:09:48;5.30;98.30
17887;DHT22;9069;52.044;7.472;2023-01-24T15:12:29;5.30;98.20
17887;DHT22;9069;52.044;7.472;2023-01-24T15:14:59;5.30;98.00
17887;DHT22;9069;52.044;7.472;2023-01-24T15:17:29;5.30;98.20
17887;DHT22;9069;52.044;7.472;2023-01-24T15:20:10;5.30;98.30
17887;DHT22;9069;52.044;7.472;2023-01-24T15:22:38;5.30;98.10
17887;DHT22;9069;52.044;7.472;2023-01-24T15:27:49;5.20;98.00
17887;DHT22;9069;52.044;7.472;2023-01-24T15:30:26;5.30;98.30
17887;DHT22;9069;52.044;7.472;2023-01-24T15:35:39;5.20;98.10
17887;DHT22;9069;52.044;7.472;2023-01-24T15:38:23;5.20;98.10
17887;DHT22;9069;52.044;7.472;2023-01-24T15:44:24;5.20;98.20
17887;DHT22;9069;52.044;7.472;2023-01-24T15:46:36;5.20;98.10
17887;DHT22;9069;52.044;7.472;2023-01-24T15:49:33;5.20;98.20
17887;DHT22;9069;52.044;7.472;2023-01-24T15:52:13;5.20;98.30
17887;DHT22;9069;52.044;7.472;2023-01-24T15:54:43;5.10;98.30
17887;DHT22;9069;52.044;7.472;2023-01-24T15:57:19;5.10;98.40
17887;DHT22;9069;52.044;7.472;2023-01-24T15:59:52;5.10;98.20
17887;DHT22;9069;52.044;7.472;2023-01-24T16:02:20;5.10;98.30
17887;DHT22;9069;52.044;7.472;2023-01-24T16:04:47;5.10;98.30
17887;DHT22;9069;52.044;7.472;2023-01-24T16:07:15;5.10;98.40
17887;DHT22;9069;52.044;7.472;2023-01-24T16:09:45;5.10;98.30
17887;DHT22;9069;52.044;7.472;2023-01-24T16:12:16;5.10;98.40
17887;DHT22;9069;52.044;7.472;2023-01-24T16:14:49;5.10;98.50
17887;DHT22;9069;52.044;7.472;2023-01-24T16:17:33;5.10;98.40
17887;DHT22;9069;52.044;7.472;2023-01-24T16:20:00;5.10;98.60
17887;DHT22;9069;52.044;7.472;2023-01-24T16:22:27;5.10;98.50
17887;DHT22;9069;52.044;7.472;2023-01-24T16:24:55;5.10;98.60
17887;DHT22;9069;52.044;7.472;2023-01-24T16:27:22;5.10;98.60
17887;DHT22;9069;52.044;7.472;2023-01-24T16:29:48;5.10;98.50
17887;DHT22;9069;52.044;7.472;2023-01-24T16:32:22;5.10;98.50
17887;DHT22;9069;52.044;7.472;2023-01-24T16:34:49;5.10;98.30
17887;DHT22;9069;52.044;7.472;2023-01-24T16:37:16;5.10;98.40
17887;DHT22;9069;52.044;7.472;2023-01-24T16:39:47;5.00;98.30
17887;DHT22;9069;52.044;7.472;2023-01-24T16:42:16;5.00;98.30
17887;DHT22;9069;52.044;7.472;2023-01-24T16:44:59;5.00;98.30
17887;DHT22;9069;52.044;7.472;2023-01-24T16:47:27;5.00;98.20
17887;DHT22;9069;52.044;7.472;2023-01-24T16:49:55;5.00;98.40
17887;DHT22;9069;52.044;7.472;2023-01-24T16:52:24;5.00;98.40
17887;DHT22;9069;52.044;7.472;2023-01-24T16:54:52;5.00;98.30
17887;DHT22;9069;52.044;7.472;2023-01-24T16:57:19;5.00;98.30
17887;DHT22;9069;52.044;7.472;2023-01-24T16:59:46;5.00;98.40
17887;DHT22;9069;52.044;7.472;2023-01-24T17:02:13;5.00;98.40
17887;DHT22;9069;52.044;7.472;2023-01-24T17:04:40;4.90;98.40
17887;DHT22;9069;52.044;7.472;2023-01-24T17:07:06;4.90;98.50
17887;DHT22;9069;52.044;7.472;2023-01-24T17:09:34;4.90;98.50
17887;DHT22;9069;52.044;7.472;2023-01-24T17:12:00;4.90;98.50
17887;DHT22;9069;52.044;7.472;2023-01-24T17:14:39;4.90;98.50
17887;DHT22;9069;52.044;7.472;2023-01-24T17:17:07;4.90;98.60
17887;DHT22;9069;52.044;7.472;2023-01-24T17:19:34;4.90;98.60
17887;DHT22;9069;52.044;7.472;2023-01-24T17:22:03;4.90;98.70
17887;DHT22;9069;52.044;7.472;2023-01-24T17:24:30;4.90;98.70
17887;DHT22;9069;52.044;7.472;2023-01-24T17:26:57;4.90;98.70
17887;DHT22;9069;52.044;7.472;2023-01-24T17:29:23;4.90;98.70
17887;DHT22;9069;52.044;7.472;2023-01-24T17:31:54;4.90;98.60
17887;DHT22;9069;52.044;7.472;2023-01-24T17:34:22;4.90;98.60
17887;DHT22;9069;52.044;7.472;2023-01-24T17:36:49;4.90;98.50
17887;DHT22;9069;52.044;7.472;2023-01-24T17:39:16;4.90;98.50
17887;DHT22;9069;52.044;7.472;2023-01-24T17:41:43;4.90;98.50
17887;DHT22;9069;52.044;7.472;2023-01-24T17:44:10;4.90;98.40
17887;DHT22;9069;52.044;7.472;2023-01-24T17:46:38;4.90;98.50
17887;DHT22;9069;52.044;7.472;2023-01-24T17:49:05;4.90;98.40
17887;DHT22;9069;52.044;7.472;2023-01-24T17:51:32;4.90;98.40
17887;DHT22;9069;52.044;7.472;2023-01-24T17:54:04;4.90;98.40
17887;DHT22;9069;52.044;7.472;2023-01-24T17:56:31;4.90;98.40
17887;DHT22;9069;52.044;7.472;2023-01-24T17:58:58;4.90;98.40
17887;DHT22;9069;52.044;7.472;2023-01-24T18:01:25;4.90;98.40
17887;DHT22;9069;52.044;7.472;2023-01-24T18:03:52;4.90;98.40
17887;DHT22;9069;52.044;7.472;2023-01-24T18:06:19;4.90;98.40
17887;DHT22;9069;52.044;7.472;2023-01-24T18:08:46;4.80;98.70
17887;DHT22;9069;52.044;7.472;2023-01-24T18:11:15;4.80;98.40
17887;DHT22;9069;52.044;7.472;2023-01-24T18:13:42;4.80;98.40
17887;DHT22;9069;52.044;7.472;2023-01-24T18:16:12;4.80;98.40
17887;DHT22;9069;52.044;7.472;2023-01-24T18:18:40;4.80;98.40
17887;DHT22;9069;52.044;7.472;2023-01-24T18:21:11;4.80;98.40
17887;DHT22;9069;52.044;7.472;2023-01-24T18:23:39;4.80;98.40
17887;DHT22;9069;52.044;7.472;2023-01-24T18:26:06;4.80;98.40
17887;DHT22;9069;52.044;7.472;2023-01-24T18:28:34;4.80;98.40
17887;DHT22;9069;52.044;7.472;2023-01-24T18:31:06;4.80;98.40